Time,TemperatureF,DewpointF,PressureIn,WindDirection,WindDirectionDegrees,WindSpeedMPH,WindSpeedGustMPH,Humidity,HourlyPrecipIn,Conditions,Clouds,dailyrainin,SolarRadiationWatts/m^2,SoftwareType,DateUTC
2014-02-25 00:24:00,51.0,49.0,30.01,West,278,3.0,16.0,93,0.00,,,0.00,0.000000,,2014-02-25 08:24:00,
2014-02-25 00:32:00,51.0,49.0,30.01,West,278,3.0,16.0,93,0.00,,,0.00,0.000000,,2014-02-25 08:32:00,
2014-02-25 00:42:00,51.0,49.0,30.01,West,278,3.0,16.0,93,0.00,,,0.00,0.000000,,2014-02-25 08:42:00,
2014-02-25 00:52:00,51.0,49.0,30.01,West,278,3.0,16.0,93,0.00,,,0.00,0.000000,,2014-02-25 08:52:00,
2014-02-25 08:23:00,46.0,42.0,30.01,NNE,22,1.0,3.0,85,-99.99,,,0.00,95.000000,,2014-02-25 16:23:00,
2014-02-25 08:32:00,46.0,42.0,30.01,NNE,22,1.0,3.0,85,-99.99,,,0.00,95.000000,,2014-02-25 16:32:00,
2014-02-25 08:42:00,46.0,42.0,30.01,NNE,22,1.0,3.0,85,-99.99,,,0.00,95.000000,,2014-02-25 16:42:00,
2014-02-25 08:53:00,46.0,42.0,30.01,NNE,22,1.0,3.0,85,-99.99,,,0.00,95.000000,,2014-02-25 16:53:00,
2014-02-25 09:22:00,58.0,47.0,30.01,NNE,25,1.0,3.0,67,-99.99,,,0.00,282.000000,,2014-02-25 17:22:00,
2014-02-25 09:33:00,58.0,47.0,30.01,NNE,25,1.0,3.0,67,-99.99,,,0.00,282.000000,,2014-02-25 17:33:00,
2014-02-25 09:42:00,58.0,47.0,30.01,NNE,25,1.0,3.0,67,-99.99,,,0.00,282.000000,,2014-02-25 17:42:00,
2014-02-25 09:52:00,58.0,47.0,30.01,NNE,25,1.0,3.0,67,-99.99,,,0.00,282.000000,,2014-02-25 17:52:00,
2014-02-25 10:42:00,65.0,48.0,30.01,ESE,109,5.0,9.0,55,0.00,,,0.00,511.000000,,2014-02-25 18:42:00,
2014-02-25 10:52:00,65.0,48.0,30.01,ESE,109,5.0,9.0,55,0.00,,,0.00,511.000000,,2014-02-25 18:52:00,
2014-02-25 11:52:00,69.0,49.0,30.00,South,180,8.0,11.0,49,0.00,,,0.00,665.000000,,2014-02-25 19:52:00,
2014-02-25 12:21:00,66.0,49.0,29.98,South,183,18.0,23.0,54,0.00,,,0.00,754.000000,,2014-02-25 20:21:00,
2014-02-25 12:32:00,66.0,49.0,29.98,South,183,18.0,23.0,54,0.00,,,0.00,754.000000,,2014-02-25 20:32:00,
2014-02-25 12:42:00,66.0,49.0,29.98,South,183,18.0,23.0,54,0.00,,,0.00,754.000000,,2014-02-25 20:42:00,
2014-02-25 12:52:00,66.0,49.0,29.98,South,183,18.0,23.0,54,0.00,,,0.00,754.000000,,2014-02-25 20:52:00,
2014-02-25 13:22:00,66.0,49.0,29.96,South,179,18.0,29.0,54,0.00,,,0.00,752.000000,,2014-02-25 21:22:00,
2014-02-25 13:32:00,66.0,49.0,29.96,South,179,18.0,29.0,54,0.00,,,0.00,752.000000,,2014-02-25 21:32:00,
2014-02-25 13:42:00,66.0,49.0,29.96,South,179,18.0,29.0,54,0.00,,,0.00,752.000000,,2014-02-25 21:42:00,
2014-02-25 13:53:00,66.0,49.0,29.96,South,179,18.0,29.0,54,0.00,,,0.00,752.000000,,2014-02-25 21:53:00,
2014-02-25 14:22:00,67.0,50.0,29.96,West,260,16.0,29.0,54,0.00,,,0.00,713.000000,,2014-02-25 22:22:00,
2014-02-25 14:33:00,67.0,50.0,29.96,West,260,16.0,29.0,54,0.00,,,0.00,713.000000,,2014-02-25 22:33:00,
2014-02-25 14:42:00,67.0,50.0,29.96,West,260,16.0,29.0,54,0.00,,,0.00,713.000000,,2014-02-25 22:42:00,
2014-02-25 14:52:00,67.0,50.0,29.96,West,260,16.0,29.0,54,0.00,,,0.00,713.000000,,2014-02-25 22:52:00,
2014-02-25 15:22:00,67.0,51.0,29.93,South,178,15.0,32.0,56,0.00,,,0.00,573.000000,,2014-02-25 23:22:00,
2014-02-25 15:33:00,67.0,51.0,29.93,South,178,15.0,32.0,56,0.00,,,0.00,573.000000,,2014-02-25 23:33:00,
2014-02-25 15:42:00,67.0,51.0,29.93,South,178,15.0,32.0,56,0.00,,,0.00,573.000000,,2014-02-25 23:42:00,
2014-02-25 15:53:00,67.0,51.0,29.93,South,178,15.0,32.0,56,0.00,,,0.00,573.000000,,2014-02-25 23:53:00,
2014-02-25 16:22:00,65.0,49.0,29.93,South,180,14.0,26.0,57,0.00,,,0.00,334.000000,,2014-02-26 00:22:00,
2014-02-25 16:32:00,65.0,49.0,29.93,South,180,14.0,26.0,57,0.00,,,0.00,334.000000,,2014-02-26 00:32:00,
2014-02-25 16:42:00,65.0,49.0,29.93,South,180,14.0,26.0,57,0.00,,,0.00,334.000000,,2014-02-26 00:42:00,
2014-02-25 16:52:00,65.0,49.0,29.93,South,180,14.0,26.0,57,0.00,,,0.00,334.000000,,2014-02-26 00:52:00,
2014-02-25 17:21:00,59.0,50.0,29.96,West,276,10.0,27.0,71,0.00,,,0.00,205.000000,,2014-02-26 01:21:00,
2014-02-25 17:32:00,59.0,50.0,29.96,West,276,10.0,27.0,71,0.00,,,0.00,205.000000,,2014-02-26 01:32:00,
2014-02-25 17:42:00,59.0,50.0,29.96,West,276,10.0,27.0,71,0.00,,,0.00,205.000000,,2014-02-26 01:42:00,
2014-02-25 17:52:00,59.0,50.0,29.96,West,276,10.0,27.0,71,0.00,,,0.00,205.000000,,2014-02-26 01:52:00,
2014-02-25 18:21:00,55.0,49.0,29.98,SSE,161,9.0,21.0,81,0.00,,,0.00,24.000000,,2014-02-26 02:21:00,
2014-02-25 18:32:00,55.0,49.0,29.98,SSE,161,9.0,21.0,81,0.00,,,0.00,24.000000,,2014-02-26 02:32:00,
2014-02-25 18:42:00,55.0,49.0,29.98,SSE,161,9.0,21.0,81,0.00,,,0.00,24.000000,,2014-02-26 02:42:00,
2014-02-25 18:52:00,55.0,49.0,29.98,SSE,161,9.0,21.0,81,0.00,,,0.00,24.000000,,2014-02-26 02:52:00,
2014-02-25 19:22:00,54.0,49.0,30.00,SSE,166,6.0,18.0,83,0.00,,,0.00,0.000000,,2014-02-26 03:22:00,
2014-02-25 19:33:00,54.0,49.0,30.00,SSE,166,6.0,18.0,83,0.00,,,0.00,0.000000,,2014-02-26 03:33:00,
2014-02-25 19:43:00,54.0,49.0,30.00,SSE,166,6.0,18.0,83,0.00,,,0.00,0.000000,,2014-02-26 03:43:00,
2014-02-25 19:53:00,54.0,49.0,30.00,SSE,166,6.0,18.0,83,0.00,,,0.00,0.000000,,2014-02-26 03:53:00,
2014-02-25 20:23:00,55.0,50.0,30.01,SSW,201,6.0,13.0,82,0.00,,,0.00,0.000000,,2014-02-26 04:23:00,
2014-02-25 20:33:00,55.0,50.0,30.01,SSW,201,6.0,13.0,82,0.00,,,0.00,0.000000,,2014-02-26 04:33:00,
2014-02-25 20:42:00,55.0,50.0,30.01,SSW,201,6.0,13.0,82,0.00,,,0.00,0.000000,,2014-02-26 04:42:00,
2014-02-25 20:53:00,55.0,50.0,30.01,SSW,201,6.0,13.0,82,0.00,,,0.00,0.000000,,2014-02-26 04:53:00,
2014-02-25 21:22:00,55.0,50.0,30.03,SSE,158,4.0,11.0,84,0.00,,,0.00,0.000000,,2014-02-26 05:22:00,
2014-02-25 21:33:00,55.0,50.0,30.03,SSE,158,4.0,11.0,84,0.00,,,0.00,0.000000,,2014-02-26 05:33:00,
2014-02-25 21:42:00,55.0,50.0,30.03,SSE,158,4.0,11.0,84,0.00,,,0.00,0.000000,,2014-02-26 05:42:00,
2014-02-25 21:52:00,55.0,50.0,30.03,SSE,158,4.0,11.0,84,0.00,,,0.00,0.000000,,2014-02-26 05:52:00,
2014-02-25 22:22:00,51.0,48.0,30.01,West,272,1.0,9.0,89,0.00,,,0.00,0.000000,,2014-02-26 06:22:00,
2014-02-25 22:32:00,51.0,48.0,30.01,West,272,1.0,9.0,89,0.00,,,0.00,0.000000,,2014-02-26 06:32:00,
2014-02-25 22:42:00,51.0,48.0,30.01,West,272,1.0,9.0,89,0.00,,,0.00,0.000000,,2014-02-26 06:42:00,
2014-02-25 22:52:00,51.0,48.0,30.01,West,272,1.0,9.0,89,0.00,,,0.00,0.000000,,2014-02-26 06:52:00,
2014-02-25 23:21:00,50.0,47.0,30.03,North,9,1.0,5.0,88,0.00,,,0.00,0.000000,,2014-02-26 07:21:00,
2014-02-25 23:32:00,50.0,47.0,30.03,North,9,1.0,5.0,88,0.00,,,0.00,0.000000,,2014-02-26 07:32:00,
2014-02-25 23:42:00,50.0,47.0,30.03,North,9,1.0,5.0,88,0.00,,,0.00,0.000000,,2014-02-26 07:42:00,
2014-02-25 23:52:00,50.0,47.0,30.03,North,9,1.0,5.0,88,0.00,,,0.00,0.000000,,2014-02-26 07:52:00,